createdAt,value
2019-03-16T00:02:26.967Z,9.70
2019-03-16T00:04:56.974Z,9.70
2019-03-16T00:11:17.476Z,9.70
2019-03-16T00:13:47.479Z,9.70
2019-03-16T00:16:17.438Z,9.70
2019-03-16T00:18:48.010Z,9.60
2019-03-16T00:21:17.964Z,9.70
2019-03-16T00:27:39.763Z,9.60
2019-03-16T00:30:10.252Z,9.60
2019-03-16T00:32:40.409Z,9.70
2019-03-16T00:35:10.399Z,9.70
2019-03-16T00:37:42.150Z,9.70
2019-03-16T00:40:12.443Z,9.70
2019-03-16T00:42:42.469Z,9.70
2019-03-16T00:48:39.037Z,9.80
2019-03-16T00:51:09.625Z,9.80
2019-03-16T00:53:39.612Z,9.80
2019-03-16T00:56:09.551Z,9.70
2019-03-16T00:58:39.511Z,9.70
2019-03-16T01:01:09.584Z,9.80
2019-03-16T01:03:39.985Z,9.70
2019-03-16T01:06:09.994Z,9.80
2019-03-16T01:08:39.944Z,9.70
2019-03-16T01:11:10.483Z,9.80
2019-03-16T01:13:40.428Z,9.80
2019-03-16T01:16:10.340Z,9.80
2019-03-16T01:22:31.323Z,9.80
2019-03-16T01:32:20.879Z,9.90
2019-03-16T01:34:50.820Z,9.90
2019-03-16T01:37:20.784Z,9.90
2019-03-16T01:43:41.657Z,9.80
2019-03-16T02:12:56.407Z,9.70
2019-03-16T02:30:25.114Z,9.80
2019-03-16T02:33:11.058Z,9.80
2019-03-16T02:35:26.853Z,9.80
2019-03-16T02:37:56.931Z,9.70
2019-03-16T02:40:28.446Z,9.80
2019-03-16T02:42:58.504Z,9.80
2019-03-16T02:56:56.913Z,9.90
2019-03-16T02:59:26.925Z,9.90
2019-03-16T03:01:56.860Z,10.00
2019-03-16T03:04:27.480Z,10.00
2019-03-16T03:06:57.393Z,10.00
2019-03-16T03:09:27.339Z,10.00
2019-03-16T03:15:44.074Z,10.10
2019-03-16T03:18:14.009Z,10.10
2019-03-16T03:20:43.932Z,10.20
2019-03-16T03:23:14.599Z,10.20
2019-03-16T03:25:44.543Z,10.20
2019-03-16T03:28:14.489Z,10.20
2019-03-16T03:30:44.415Z,10.20
2019-03-16T03:33:14.329Z,10.10
2019-03-16T03:39:35.647Z,10.00
2019-03-16T03:42:05.873Z,9.90
2019-03-16T03:44:35.922Z,9.80
2019-03-16T03:47:05.978Z,9.70
2019-03-16T03:49:35.883Z,9.70
2019-03-16T03:52:05.871Z,9.60
2019-03-16T03:54:36.041Z,9.60
2019-03-16T03:57:06.140Z,9.60
2019-03-16T03:59:36.266Z,9.60
2019-03-16T04:02:06.313Z,9.50
2019-03-16T04:04:36.435Z,9.60
2019-03-16T04:10:51.126Z,9.60
2019-03-16T04:13:21.157Z,9.60
2019-03-16T04:15:51.097Z,9.60
2019-03-16T04:22:12.068Z,9.70
2019-03-16T04:24:45.322Z,9.70
2019-03-16T04:27:16.253Z,9.70
2019-03-16T04:29:45.925Z,9.70
2019-03-16T04:32:15.819Z,9.70
2019-03-16T04:34:45.815Z,9.70
2019-03-16T04:37:15.795Z,9.70
2019-03-16T04:39:45.697Z,9.60
2019-03-16T04:42:15.601Z,9.70
2019-03-16T04:44:45.591Z,9.80
2019-03-16T04:47:15.512Z,9.70
2019-03-16T04:49:45.447Z,9.70
2019-03-16T04:52:15.361Z,9.70
2019-03-16T04:54:45.258Z,9.70
2019-03-16T04:57:15.205Z,9.70
2019-03-16T04:59:45.710Z,9.80
2019-03-16T05:02:15.643Z,9.70
2019-03-16T05:04:45.562Z,9.70
2019-03-16T05:07:15.569Z,9.60
2019-03-16T05:09:45.479Z,9.60
2019-03-16T05:12:15.414Z,9.70
2019-03-16T05:18:36.881Z,9.70
2019-03-16T05:21:06.973Z,9.60
2019-03-16T05:30:18.870Z,9.50
2019-03-16T05:32:48.785Z,9.60
2019-03-16T05:35:18.702Z,9.60
2019-03-16T05:37:48.598Z,9.60
2019-03-16T05:40:18.546Z,9.50
2019-03-16T05:42:48.481Z,9.50
2019-03-16T05:45:18.469Z,9.60
2019-03-16T05:47:48.393Z,9.50
2019-03-16T05:50:18.460Z,9.60
2019-03-16T05:52:48.363Z,9.60
2019-03-16T05:55:18.280Z,9.60
2019-03-16T05:57:48.877Z,9.60
2019-03-16T06:11:48.688Z,9.60
2019-03-16T06:14:19.295Z,9.60
2019-03-16T06:16:49.217Z,9.60
2019-03-16T06:19:19.115Z,9.70
2019-03-16T06:21:49.042Z,9.60
2019-03-16T06:24:19.084Z,9.70
2019-03-16T06:26:49.021Z,9.70
2019-03-16T06:29:18.907Z,9.70
2019-03-16T06:31:48.799Z,9.70
2019-03-16T06:34:18.781Z,9.70
2019-03-16T06:36:49.341Z,9.70
2019-03-16T06:39:19.262Z,9.70
2019-03-16T06:41:50.507Z,9.70
2019-03-16T06:44:20.650Z,9.80
2019-03-16T06:50:29.050Z,9.80
2019-03-16T06:52:58.963Z,9.80
2019-03-16T06:55:28.944Z,9.90
2019-03-16T06:57:58.887Z,10.00
2019-03-16T07:00:29.939Z,10.00
2019-03-16T08:09:48.853Z,10.40
2019-03-16T08:12:18.872Z,10.50
2019-03-16T08:14:48.805Z,10.60
2019-03-16T08:17:18.757Z,10.50
2019-03-16T08:19:48.676Z,10.60
2019-03-16T08:22:19.345Z,10.70
2019-03-16T08:24:49.278Z,10.90
2019-03-16T08:27:19.280Z,10.90
2019-03-16T08:29:49.237Z,10.80
2019-03-16T08:32:19.987Z,10.90
2019-03-16T08:34:50.010Z,10.90
2019-03-16T08:37:19.903Z,11.00
2019-03-16T08:39:49.815Z,11.00
2019-03-16T08:42:19.713Z,11.20
2019-03-16T08:44:49.646Z,11.40
2019-03-16T08:47:19.534Z,11.30
2019-03-16T08:53:40.360Z,11.30
2019-03-16T08:56:10.324Z,11.30
2019-03-16T08:58:40.256Z,11.60
2019-03-16T09:01:10.200Z,11.50
2019-03-16T09:03:43.894Z,11.50
2019-03-16T09:06:11.748Z,11.40
2019-03-16T09:08:41.759Z,11.30
2019-03-16T09:11:11.728Z,11.40
2019-03-16T09:13:41.732Z,11.60
2019-03-16T09:16:11.776Z,11.40
2019-03-16T09:18:41.720Z,11.10
2019-03-16T09:21:11.709Z,11.00
2019-03-16T09:23:41.684Z,11.00
2019-03-16T09:26:12.421Z,10.70
2019-03-16T09:28:42.355Z,10.30
2019-03-16T09:31:12.505Z,10.00
2019-03-16T09:33:43.230Z,10.00
2019-03-16T09:36:13.228Z,9.90
2019-03-16T09:38:43.231Z,9.90
2019-03-16T09:41:13.306Z,9.80
2019-03-16T09:47:34.670Z,9.80
2019-03-16T09:50:07.294Z,10.00
2019-03-16T09:52:36.659Z,10.20
2019-03-16T09:55:06.902Z,10.40
2019-03-16T10:48:07.123Z,11.80
2019-03-16T10:50:37.042Z,11.70
2019-03-16T10:53:06.927Z,11.90
2019-03-16T11:02:23.808Z,12.30
2019-03-16T11:19:51.633Z,12.50
2019-03-16T11:22:21.575Z,13.00
2019-03-16T11:24:51.477Z,13.00
2019-03-16T11:27:22.141Z,13.20
2019-03-16T11:29:52.042Z,13.40
2019-03-16T11:32:21.955Z,13.50
2019-03-16T11:34:52.629Z,13.50
2019-03-16T11:37:22.563Z,13.60
2019-03-16T11:39:52.562Z,13.40
2019-03-16T11:42:22.481Z,13.30
2019-03-16T11:44:52.419Z,13.40
2019-03-16T11:47:22.332Z,13.70
2019-03-16T11:49:52.583Z,13.90
2019-03-16T11:52:22.570Z,13.60
2019-03-16T11:54:52.847Z,13.40
2019-03-16T11:57:22.795Z,13.90
2019-03-16T11:59:52.694Z,14.10
2019-03-16T12:02:22.676Z,13.70
2019-03-16T12:04:52.581Z,13.20
2019-03-16T12:07:22.635Z,13.00
2019-03-16T12:09:53.242Z,13.10
2019-03-16T12:12:24.027Z,13.00
2019-03-16T12:14:54.112Z,13.00
2019-03-16T12:17:24.500Z,13.30
2019-03-16T12:23:38.794Z,13.70
2019-03-16T12:26:08.761Z,13.50
2019-03-16T12:28:38.692Z,13.50
2019-03-16T12:31:08.598Z,13.10
2019-03-16T12:33:38.530Z,13.50
2019-03-16T12:36:08.571Z,13.50
2019-03-16T12:38:38.479Z,13.30
2019-03-16T12:41:08.340Z,13.60
2019-03-16T12:43:38.491Z,13.80
2019-03-16T12:46:08.418Z,13.70
2019-03-16T12:48:38.826Z,13.60
2019-03-16T12:51:08.810Z,14.10
2019-03-16T12:53:39.592Z,14.10
2019-03-16T13:15:17.810Z,14.00
2019-03-16T13:17:47.878Z,13.90
2019-03-16T13:20:17.923Z,14.10
2019-03-16T13:22:47.903Z,14.60
2019-03-16T13:29:02.553Z,14.20
2019-03-16T13:31:32.886Z,14.40
2019-03-16T13:34:02.840Z,14.30
2019-03-16T13:36:32.803Z,14.80
2019-03-16T13:39:02.730Z,14.40
2019-03-16T13:41:32.627Z,14.20
2019-03-16T13:44:02.552Z,13.80
2019-03-16T13:52:52.838Z,14.00
2019-03-16T13:55:22.811Z,13.80
2019-03-16T13:57:52.798Z,14.10
2019-03-16T14:04:07.656Z,13.70
2019-03-16T14:06:38.196Z,13.90
2019-03-16T14:09:08.832Z,14.40
2019-03-16T14:11:41.220Z,14.60
2019-03-16T14:30:41.231Z,14.10
2019-03-16T14:33:10.074Z,14.20
2019-03-16T14:35:39.979Z,14.50
2019-03-16T14:38:09.964Z,14.90
2019-03-16T15:18:45.047Z,12.90
2019-03-16T15:21:14.658Z,12.80
2019-03-16T15:30:50.572Z,12.80
2019-03-16T15:33:15.373Z,12.80
2019-03-16T15:35:45.292Z,12.90
2019-03-16T15:42:05.893Z,12.80
2019-03-16T15:44:38.099Z,12.80
2019-03-16T15:47:07.704Z,12.90
2019-03-16T15:53:29.294Z,12.80
2019-03-16T16:03:18.632Z,13.00
2019-03-16T16:05:48.544Z,12.80
2019-03-16T16:08:19.463Z,12.70
2019-03-16T16:11:00.427Z,12.60
2019-03-16T16:13:21.037Z,12.50
2019-03-16T16:15:50.970Z,12.50
2019-03-16T16:18:21.511Z,12.50
2019-03-16T16:20:51.573Z,12.50
2019-03-16T16:23:21.542Z,12.50
2019-03-16T16:25:51.883Z,12.50
2019-03-16T16:28:21.847Z,12.30
2019-03-16T16:30:51.762Z,12.20
2019-03-16T16:33:21.657Z,12.30
2019-03-16T16:35:51.586Z,12.20
2019-03-16T16:38:21.665Z,12.10
2019-03-16T16:40:51.957Z,12.30
2019-03-16T16:43:21.949Z,12.40
2019-03-16T16:45:52.632Z,12.20
2019-03-16T16:48:22.590Z,12.10
2019-03-16T16:50:53.404Z,12.10
2019-03-16T16:53:24.073Z,11.90
2019-03-16T16:59:45.529Z,11.60
2019-03-16T17:02:15.485Z,11.50
2019-03-16T17:04:45.404Z,11.00
2019-03-16T17:07:15.424Z,10.70
2019-03-16T17:09:46.198Z,10.40
2019-03-16T17:12:16.100Z,10.50
2019-03-16T17:28:32.840Z,9.40
2019-03-16T17:31:06.065Z,9.10
2019-03-16T17:33:36.593Z,9.00
2019-03-16T17:36:06.513Z,8.80
2019-03-16T17:42:21.074Z,8.70
2019-03-16T17:44:51.525Z,8.80
2019-03-16T17:47:21.449Z,8.50
2019-03-16T17:53:42.275Z,8.20
2019-03-16T18:03:31.580Z,7.40
2019-03-16T18:06:02.152Z,7.80
2019-03-16T18:15:08.094Z,7.20
2019-03-16T18:17:38.466Z,7.10
2019-03-16T18:20:09.679Z,7.20
2019-03-16T18:22:40.078Z,7.20
2019-03-16T18:25:11.025Z,7.00
2019-03-16T18:27:40.925Z,6.90
2019-03-16T18:30:13.668Z,6.80
2019-03-16T18:32:43.696Z,6.60
2019-03-16T18:35:13.769Z,6.60
2019-03-16T18:37:43.743Z,6.70
2019-03-16T18:40:13.968Z,6.80
2019-03-16T18:46:35.827Z,6.60
2019-03-16T18:49:05.826Z,6.30
2019-03-16T18:51:35.762Z,6.20
2019-03-16T18:54:06.073Z,6.10
2019-03-16T18:56:36.473Z,6.00
2019-03-16T18:59:09.111Z,6.10
2019-03-16T19:01:38.183Z,6.30
2019-03-16T19:04:08.084Z,6.50
2019-03-16T19:06:38.659Z,6.40
2019-03-16T19:09:10.134Z,6.20
2019-03-16T19:11:40.910Z,6.20
2019-03-16T19:14:10.847Z,6.50
2019-03-16T19:16:40.995Z,6.40
2019-03-16T19:19:11.466Z,6.10
2019-03-16T19:21:41.378Z,6.10
2019-03-16T19:24:11.324Z,5.90
2019-03-16T19:26:41.187Z,6.00
2019-03-16T19:29:11.119Z,6.00
2019-03-16T19:31:41.019Z,5.80
2019-03-16T19:34:11.435Z,5.80
2019-03-16T19:36:41.726Z,5.80
2019-03-16T19:39:11.672Z,5.60
2019-03-16T19:41:41.922Z,5.50
2019-03-16T19:44:11.800Z,5.40
2019-03-16T19:50:33.415Z,5.30
2019-03-16T19:53:03.401Z,5.10
2019-03-16T19:55:33.920Z,5.10
2019-03-16T19:58:03.814Z,5.20
2019-03-16T20:12:01.944Z,4.80
2019-03-16T20:14:32.575Z,5.00
2019-03-16T20:24:21.821Z,4.80
2019-03-16T20:26:52.421Z,4.70
2019-03-16T20:29:22.315Z,4.70
2019-03-16T20:31:52.239Z,4.70
2019-03-16T20:45:51.981Z,4.50
2019-03-16T20:48:21.945Z,4.40
2019-03-16T20:50:51.864Z,4.30
2019-03-16T21:04:44.050Z,4.70
2019-03-16T21:07:14.005Z,4.90
2019-03-16T21:09:43.932Z,5.30
2019-03-16T21:12:13.845Z,5.40
2019-03-16T21:14:43.739Z,5.60
2019-03-16T21:21:03.747Z,6.40
2019-03-16T21:23:33.664Z,6.40
2019-03-16T21:26:03.892Z,6.80
2019-03-16T21:28:33.788Z,6.90
2019-03-16T21:34:54.455Z,7.50
2019-03-16T21:37:24.418Z,7.40
2019-03-16T21:39:54.381Z,7.40
2019-03-16T21:42:24.327Z,7.40
2019-03-16T21:44:54.166Z,7.30
2019-03-16T21:47:24.098Z,7.40
2019-03-16T21:49:53.985Z,7.20
2019-03-16T21:56:14.881Z,7.40
2019-03-16T21:58:44.767Z,7.30
2019-03-16T22:01:14.674Z,7.10
2019-03-16T22:45:36.244Z,7.70
2019-03-16T22:48:06.376Z,7.40
2019-03-16T23:27:30.048Z,6.10
2019-03-16T23:30:00.014Z,6.00
2019-03-16T23:39:12.481Z,5.60
